Wellman, Texas
Current Conditions -  °F | °C
As of 12:15 PM on Thursday 18 Dec 2014 (Local Time) from KGNC Reporting Station
Clear Clear  
Wind Chill: 59°   Ceiling: Unl
Heat Index: 59°   Visibility: 10mi
Dew Point: 29°   Wind: 9mph
Humidity: 32%   Direction: 290°WNW
Pressure: 30.12"   Gusts: NA
Location:  33.05°N, 102.43°W
Report Text: KGNC 181815Z AUTO 29008KT 10SM CLR 15/M02 A3012 RMK AO2 T01481019
Loading
Personal Weather Stations






























Interactive Weather Map New forecast layout! Learn more

10-Day Weather Forecast

Advertisements
Track Severe Weather on mobile